OINR  Ramsar  Airport

Iran

Add Bookmark
ICAO OINR
IATA RZR
Type Airport
Status Operational
Latitude
36° 54' 35" N
36.909901
Longitude
50° 40' 46" E
50.679600
Local (DST + 5) UTC (GMT + 4)
May 6, 2015 10:56 May 6, 2015 06:26
Sunrise-Sunset Local UTC
Begin Civil Twilight 05:38 01:08
Sunrise 06:06 01:36
Sunset 08:01 15:31
End Civil Twilight 08:29 15:59
VFR
VFR
MVFR
MVFR
IFR
VFR
LIFR
VFR
Unknown
Unavailable

Current Weather

METAR Observed VFR
OINR 060600Z 36004KT 9999 SCT011 SCT020CB OVC080 16/14 Q1014 Wed, May 6, 2015 @ 06:00 UTC
(26 Minutes ago)
Visual Flight Rules
Wind Visibility Clouds Conditions
360° at 4 knots (7 kph) 10 km or more
  • Scattered at 1,100 ft AGL
  • Scattered at 2,000 ft AGL
  • Overcast at 8,000 ft AGL
  • No significant weather
Temperatures Readings Precipitation
Current Temp
16°C
61°F
Dewpoint
14°C
57°F
Humidity 88%
Altimeter 29.94" Hg
Sea Level Pressure 1,014 mb
None Recorded

Additional weather within a 92.6km radius of OINR

Map ICAO Location
OINN 75km E/SE (111°)
VFR
VFR
MVFR
MVFR
IFR
VFR
LIFR
VFR
Unknown
Unavailable
-
-

CheckWX.com is intended as a tool to help pilots better visualize weather data. It is not intended as a substitute for an official weather briefing obtained from a Flight Service Station. CheckWX.com does not meet the FAA requirements for an official pre-flight weather briefing. Therefore, it's important that pilots still call and obtain an official FSS pre-flight weather briefing.

© 2007-2015 CheckWX.com
06:26:12 UTC